createdAt,value
2019-04-25T00:04:31.685Z,1.00
2019-04-25T00:09:37.522Z,0.60
2019-04-25T00:14:42.482Z,0.80
2019-04-25T00:19:48.510Z,0.83
2019-04-25T00:24:53.021Z,1.07
2019-04-25T00:29:57.414Z,1.13
2019-04-25T00:35:02.036Z,0.90
2019-04-25T00:40:06.825Z,2.00
2019-04-25T00:45:11.869Z,0.97
2019-04-25T00:50:17.023Z,0.63
2019-04-25T00:55:28.642Z,0.83
2019-04-25T01:00:28.363Z,1.50
2019-04-25T01:05:33.530Z,0.83
2019-04-25T01:10:37.535Z,1.30
2019-04-25T01:15:42.525Z,0.97
2019-04-25T01:20:46.997Z,2.43
2019-04-25T01:25:51.586Z,1.30
2019-04-25T01:30:56.280Z,0.90
2019-04-25T01:36:00.687Z,1.47
2019-04-25T01:41:09.922Z,0.80
2019-04-25T01:46:14.881Z,1.13
2019-04-25T01:51:25.760Z,1.57
2019-04-25T01:56:29.871Z,1.33
2019-04-25T02:01:34.144Z,1.20
2019-04-25T02:06:38.205Z,0.53
2019-04-25T02:11:43.845Z,0.70
2019-04-25T02:16:57.571Z,1.70
2019-04-25T02:22:27.690Z,1.37
2019-04-25T02:27:31.836Z,1.43
2019-04-25T02:32:37.094Z,0.60
2019-04-25T02:37:47.298Z,0.77
2019-04-25T02:42:51.360Z,0.80
2019-04-25T02:47:56.642Z,0.30
2019-04-25T02:53:07.481Z,0.90
2019-04-25T02:58:18.310Z,0.90
2019-04-25T03:03:24.454Z,0.63
2019-04-25T03:08:35.489Z,1.03
2019-04-25T03:13:45.169Z,0.70
2019-04-25T03:18:51.015Z,0.93
2019-04-25T03:23:55.377Z,1.13
2019-04-25T03:28:59.827Z,1.07
2019-04-25T03:34:14.053Z,0.33
2019-04-25T03:39:26.870Z,0.93
2019-04-25T03:44:39.326Z,0.47
2019-04-25T03:54:58.588Z,0.83
2019-04-25T04:05:18.147Z,0.53
2019-04-25T04:10:23.292Z,0.20
2019-04-25T04:15:33.574Z,0.57
2019-04-25T04:20:44.670Z,1.10
2019-04-25T04:25:48.757Z,0.73
2019-04-25T04:30:54.072Z,0.67
2019-04-25T04:36:08.795Z,0.50
2019-04-25T04:41:20.077Z,0.47
2019-04-25T04:46:24.526Z,0.87
2019-04-25T04:51:28.578Z,0.20
2019-04-25T04:56:34.217Z,0.10
2019-04-25T05:01:47.642Z,0.20
2019-04-25T05:06:51.833Z,0.17
2019-04-25T05:11:55.883Z,0.10
2019-04-25T05:17:00.496Z,0.20
2019-04-25T05:22:10.273Z,0.27
2019-04-25T05:27:33.714Z,0.30
2019-04-25T05:32:30.733Z,0.23
2019-04-25T05:37:34.856Z,0.10
2019-04-25T05:42:39.005Z,0.20
2019-04-25T05:47:44.286Z,0.10
2019-04-25T05:52:54.240Z,0.20
2019-04-25T05:57:58.288Z,0.10
2019-04-25T06:03:03.624Z,0.10
2019-04-25T06:08:17.854Z,0.20
2019-04-25T06:13:24.979Z,0.20
2019-04-25T06:18:33.864Z,0.03
2019-04-25T06:23:48.710Z,0.10
2019-04-25T06:28:58.970Z,0.30
2019-04-25T06:34:04.553Z,0.50
2019-04-25T06:39:15.340Z,0.10
2019-04-25T06:44:20.647Z,0.00
2019-04-25T06:49:31.404Z,0.00
2019-04-25T06:54:43.617Z,0.67
2019-04-25T06:59:56.871Z,0.10
2019-04-25T07:05:00.965Z,0.00
2019-04-25T07:10:05.358Z,0.20
2019-04-25T07:20:45.936Z,0.00
2019-04-25T07:25:49.995Z,0.30
2019-04-25T07:30:54.688Z,0.00
2019-04-25T07:36:09.141Z,0.10
2019-04-25T07:41:16.348Z,0.00
2019-04-25T07:46:26.374Z,0.10
2019-04-25T07:51:36.850Z,0.23
2019-04-25T07:56:40.956Z,0.00
2019-04-25T08:01:45.004Z,0.20
2019-04-25T08:06:49.075Z,0.10
2019-04-25T08:11:54.896Z,0.00
2019-04-25T08:28:17.753Z,0.10
2019-04-25T08:33:23.794Z,0.00
2019-04-25T08:38:35.218Z,0.10
2019-04-25T08:43:46.007Z,0.03
2019-04-25T08:48:50.107Z,0.00
2019-04-25T08:53:54.252Z,0.10
2019-04-25T08:59:05.639Z,0.10
2019-04-25T09:04:09.645Z,0.10
2019-04-25T09:14:29.854Z,0.10
2019-04-25T09:19:38.387Z,0.15
2019-04-25T09:24:44.122Z,0.20
2019-04-25T09:29:54.259Z,0.20
2019-04-25T09:40:45.701Z,0.10
2019-04-25T09:45:56.044Z,0.20
2019-04-25T09:51:00.073Z,0.20
2019-04-25T09:56:04.242Z,0.10
2019-04-25T10:01:10.660Z,0.20
2019-04-25T10:06:33.326Z,0.13
2019-04-25T10:11:38.360Z,0.55
2019-04-25T10:16:44.364Z,0.10
2019-04-25T10:21:49.658Z,0.28
2019-04-25T10:26:54.768Z,0.20
2019-04-25T10:31:59.025Z,0.15
2019-04-25T10:37:03.461Z,0.30
2019-04-25T10:42:07.554Z,0.15
2019-04-25T10:47:11.574Z,0.20
2019-04-25T10:52:15.749Z,0.20
2019-04-25T10:57:19.986Z,0.10
2019-04-25T11:02:24.642Z,0.10
2019-04-25T11:07:28.706Z,0.13
2019-04-25T11:12:33.825Z,0.20
2019-04-25T11:17:38.254Z,0.10
2019-04-25T11:22:44.624Z,0.10
2019-04-25T11:27:49.683Z,0.20
2019-04-25T11:32:54.714Z,0.20
2019-04-25T11:37:58.722Z,0.20
2019-04-25T11:43:05.975Z,0.10
2019-04-25T11:48:09.974Z,0.10
2019-04-25T11:53:13.968Z,0.10
2019-04-25T11:58:17.950Z,0.13
2019-04-25T12:03:23.213Z,0.10
2019-04-25T12:08:27.696Z,0.13
2019-04-25T12:13:31.691Z,0.10
2019-04-25T12:18:35.701Z,0.10
2019-04-25T12:23:39.781Z,0.10
2019-04-25T12:28:43.811Z,0.10
2019-04-25T12:33:49.070Z,0.10
2019-04-25T12:38:54.533Z,0.10
2019-04-25T12:43:59.525Z,0.10
2019-04-25T12:49:03.566Z,0.10
2019-04-25T12:54:07.854Z,0.20
2019-04-25T12:59:11.896Z,0.10
2019-04-25T13:04:15.849Z,0.10
2019-04-25T13:09:19.859Z,0.10
2019-04-25T13:14:23.885Z,0.10
2019-04-25T13:19:27.831Z,0.10
2019-04-25T13:24:31.856Z,0.10
2019-04-25T13:29:35.844Z,0.20
2019-04-25T13:34:39.839Z,0.20
2019-04-25T13:39:44.232Z,0.10
2019-04-25T13:44:48.240Z,0.10
2019-04-25T13:49:52.236Z,0.20
2019-04-25T13:54:56.245Z,0.10
2019-04-25T14:00:00.232Z,0.10
2019-04-25T14:05:05.697Z,0.10
2019-04-25T14:10:09.740Z,0.20
2019-04-25T14:15:15.094Z,0.10
2019-04-25T14:20:20.844Z,0.10
2019-04-25T14:25:27.197Z,0.10
2019-04-25T14:30:32.602Z,0.10
2019-04-25T14:35:37.093Z,0.10
2019-04-25T14:40:42.330Z,0.10
2019-04-25T14:45:46.375Z,0.10
2019-04-25T14:50:50.370Z,0.10
2019-04-25T14:55:54.706Z,0.10
2019-04-25T15:00:58.721Z,0.20
2019-04-25T15:06:02.690Z,0.10
2019-04-25T15:11:06.672Z,0.17
2019-04-25T15:16:11.042Z,0.20
2019-04-25T15:21:15.029Z,0.10
2019-04-25T15:26:19.396Z,0.10
2019-04-25T15:31:23.475Z,0.28
2019-04-25T15:41:42.923Z,0.10
2019-04-25T15:52:02.358Z,0.10
2019-04-25T15:57:06.771Z,0.10
2019-04-25T16:02:10.916Z,0.10
2019-04-25T16:07:14.904Z,0.10
2019-04-25T16:12:19.594Z,0.10
2019-04-25T16:17:23.693Z,0.67
2019-04-25T16:22:29.042Z,0.30
2019-04-25T16:27:39.650Z,0.17
2019-04-25T16:32:43.885Z,0.13
2019-04-25T16:37:47.917Z,0.20
2019-04-25T16:42:51.947Z,0.10
2019-04-25T16:47:57.743Z,0.10
2019-04-25T16:53:01.834Z,0.10
2019-04-25T16:58:05.863Z,0.30
2019-04-25T17:08:26.922Z,0.20
2019-04-25T17:13:32.137Z,0.10
2019-04-25T17:18:36.274Z,0.13
2019-04-25T17:23:40.433Z,0.50
2019-04-25T17:28:44.896Z,0.10
2019-04-25T17:33:49.041Z,0.10
2019-04-25T17:38:53.125Z,0.20
2019-04-25T17:43:57.269Z,0.10
2019-04-25T17:49:01.623Z,0.10
2019-04-25T17:54:05.810Z,0.10
2019-04-25T17:59:09.977Z,0.10
2019-04-25T18:04:14.463Z,0.10
2019-04-25T18:09:18.942Z,0.13
2019-04-25T18:14:23.160Z,0.10
2019-04-25T18:19:27.398Z,0.10
2019-04-25T18:24:31.706Z,0.20
2019-04-25T18:29:36.074Z,0.17
2019-04-25T18:34:40.466Z,0.10
2019-04-25T18:39:46.276Z,0.10
2019-04-25T18:44:50.634Z,0.13
2019-04-25T18:49:54.996Z,0.10
2019-04-25T18:54:59.325Z,0.10
2019-04-25T19:00:04.232Z,0.00
2019-04-25T19:05:09.277Z,0.10
2019-04-25T19:10:15.087Z,0.27
2019-04-25T19:15:19.491Z,0.10
2019-04-25T19:20:23.879Z,0.10
2019-04-25T19:25:28.601Z,0.10
2019-04-25T19:30:33.145Z,0.10
2019-04-25T19:35:37.408Z,0.10
2019-04-25T19:40:42.689Z,0.10
2019-04-25T19:45:47.488Z,0.00
2019-04-25T19:50:54.889Z,0.10
2019-04-25T19:56:00.366Z,0.10
2019-04-25T20:01:04.903Z,0.10
2019-04-25T20:06:09.260Z,0.00
2019-04-25T20:11:13.650Z,0.03
2019-04-25T20:16:18.056Z,0.10
2019-04-25T20:21:22.312Z,0.10
2019-04-25T20:26:26.603Z,0.10
2019-04-25T20:31:30.818Z,0.10
2019-04-25T20:36:35.076Z,0.20
2019-04-25T20:41:39.375Z,0.00
2019-04-25T20:46:43.462Z,0.20
2019-04-25T20:51:48.466Z,0.10
2019-04-25T20:56:53.023Z,0.10
2019-04-25T21:01:57.748Z,0.23
2019-04-25T21:07:01.764Z,0.20
2019-04-25T21:12:06.507Z,0.10
2019-04-25T21:17:10.529Z,0.10
2019-04-25T21:22:15.410Z,0.10
2019-04-25T21:27:19.930Z,0.13
2019-04-25T21:32:24.518Z,0.00
2019-04-25T21:37:29.071Z,0.10
2019-04-25T21:42:34.378Z,0.00
2019-04-25T21:47:40.707Z,0.10
2019-04-25T21:52:46.055Z,0.10
2019-04-25T21:57:50.773Z,0.10
2019-04-25T22:02:56.245Z,0.50
2019-04-25T22:08:00.520Z,0.10
2019-04-25T22:13:11.954Z,0.10
2019-04-25T22:18:10.680Z,0.10
2019-04-25T22:23:27.080Z,0.10
2019-04-25T22:28:32.068Z,0.10
2019-04-25T22:33:36.351Z,0.10
2019-04-25T22:38:40.365Z,0.17
2019-04-25T22:43:44.414Z,0.20
2019-04-25T22:48:49.329Z,0.10
2019-04-25T22:53:53.672Z,0.03
2019-04-25T22:58:57.760Z,0.00
2019-04-25T23:04:01.153Z,0.10
2019-04-25T23:09:06.781Z,0.10
2019-04-25T23:14:10.980Z,0.20
2019-04-25T23:19:15.365Z,0.00
2019-04-25T23:24:19.579Z,0.20
2019-04-25T23:29:30.652Z,0.20
2019-04-25T23:34:35.026Z,0.10
2019-04-25T23:39:39.059Z,0.20
2019-04-25T23:44:43.135Z,0.30
2019-04-25T23:49:47.146Z,0.20
2019-04-25T23:55:02.060Z,0.10
